DLH732 EDDF-ZSPD
Flight info
| Callsign | DLH732 |
|---|---|
| Flight time | N/A |
| Altitude | 31000 |
| Route | CINDY5L CINDY Z74 HAREM DCT ASLEP DCT TAKUT DCT DINKU L603 BESNI/N0483F370 L605 BIBAG Q104 AKIMA DCT ARSIN DCT TEGRI DCT LUGEB DCT UDROS UM859 KARDE UL851 TBN/N0493F390 UM11 REBLO M11 MATAL T916 LEYLA N161 GASBI/K0896F390 N161 BURID/K0885F410 N161 SARIN/K0885S1250 A368 FKG W188 LIKMI W270 DKO W64 NUTLO B208 CGO W129 KAMDA W128 FYG B208 HFE R343 SASAN SAS81A |
| Aircraft | A359/H-SADE2E3GHIJ1J2J3J4J5M1P2RWXYZ/LB1D1 |
Departure
| Time | 2026-05-05 20:54 |
|---|---|
| Airport | Frankfurt Main Airport (EDDF) |
Arrival
| Time | N/A |
|---|---|
| Airport | Shanghai Pudong International Airport (ZSPD) |
| Time | Latitude | Longitude | Altitude | Speed | Heading |
|---|---|---|---|---|---|
| 2026-05-05 20:16 | 50.04643 | 8.55944 | 370 ft | 0 kts | 340° |
| 2026-05-05 20:41 | 50.04635 | 8.55949 | 367 ft | 4 kts | 340° |
| 2026-05-05 20:41 | 50.04610 | 8.55962 | 368 ft | 4 kts | 342° |
| 2026-05-05 20:41 | 50.04588 | 8.55973 | 366 ft | 4 kts | 332° |
| 2026-05-05 20:41 | 50.04571 | 8.55999 | 364 ft | 4 kts | 281° |
| 2026-05-05 20:42 | 50.04572 | 8.56039 | 366 ft | 4 kts | 253° |
| 2026-05-05 20:42 | 50.04581 | 8.56078 | 366 ft | 3 kts | 249° |
| 2026-05-05 20:42 | 50.04582 | 8.56085 | 366 ft | 0 kts | 250° |
| 2026-05-05 20:47 | 50.04582 | 8.56083 | 366 ft | 1 kts | 250° |
| 2026-05-05 20:48 | 50.04568 | 8.56029 | 364 ft | 9 kts | 246° |
| 2026-05-05 20:48 | 50.04509 | 8.55953 | 369 ft | 14 kts | 202° |
| 2026-05-05 20:48 | 50.04403 | 8.55911 | 369 ft | 18 kts | 181° |
| 2026-05-05 20:48 | 50.04290 | 8.55954 | 368 ft | 15 kts | 174° |
| 2026-05-05 20:49 | 50.04222 | 8.55866 | 367 ft | 14 kts | 248° |
| 2026-05-05 20:49 | 50.04185 | 8.55715 | 367 ft | 16 kts | 249° |
| 2026-05-05 20:49 | 50.04144 | 8.55542 | 365 ft | 18 kts | 250° |
| 2026-05-05 20:49 | 50.04100 | 8.55361 | 363 ft | 18 kts | 249° |
| 2026-05-05 20:50 | 50.04058 | 8.55182 | 366 ft | 17 kts | 250° |
| 2026-05-05 20:50 | 50.04015 | 8.55001 | 366 ft | 18 kts | 250° |
| 2026-05-05 20:50 | 50.03969 | 8.54809 | 366 ft | 20 kts | 249° |
| 2026-05-05 20:50 | 50.03918 | 8.54600 | 360 ft | 21 kts | 249° |
| 2026-05-05 20:51 | 50.03861 | 8.54379 | 362 ft | 22 kts | 239° |
| 2026-05-05 20:51 | 50.03786 | 8.54165 | 358 ft | 23 kts | 249° |
| 2026-05-05 20:51 | 50.03729 | 8.53930 | 356 ft | 23 kts | 250° |
| 2026-05-05 20:51 | 50.03672 | 8.53690 | 358 ft | 24 kts | 249° |
| 2026-05-05 20:52 | 50.03610 | 8.53445 | 357 ft | 25 kts | 249° |
| 2026-05-05 20:52 | 50.03550 | 8.53193 | 348 ft | 25 kts | 250° |
| 2026-05-05 20:52 | 50.03489 | 8.52936 | 352 ft | 26 kts | 249° |
| 2026-05-05 20:52 | 50.03419 | 8.52677 | 351 ft | 26 kts | 241° |
| 2026-05-05 20:53 | 50.03313 | 8.52596 | 345 ft | 6 kts | 181° |
| 2026-05-05 20:53 | 50.03295 | 8.52595 | 353 ft | 0 kts | 180° |
| 2026-05-05 20:53 | 50.03235 | 8.52596 | 344 ft | 34 kts | 180° |
| 2026-05-05 20:54 | 50.02794 | 8.52600 | 351 ft | 91 kts | 180° |
| 2026-05-05 20:54 | 50.01986 | 8.52608 | 339 ft | 140 kts | 180° |
| 2026-05-05 20:54 | 50.00891 | 8.52620 | 568 ft | 157 kts | 180° |
| 2026-05-05 20:54 | 49.99870 | 8.52630 | 1276 ft | 147 kts | 181° |
| 2026-05-05 20:55 | 49.98823 | 8.52631 | 1649 ft | 157 kts | 182° |
| 2026-05-05 20:55 | 49.97674 | 8.52677 | 1874 ft | 175 kts | 176° |
| 2026-05-05 20:55 | 49.96496 | 8.53402 | 2044 ft | 200 kts | 143° |